Time;durP1;ratioP1;P1;durP2;ratioP2;P2;SDS_P1;SDS_P2;PMS_P1;PMS_P2;Temp;Humidity;BMP_temperature;BMP_pressure;BME280_temperature;BME280_humidity;BME280_pressure;Samples;Min_cycle;Max_cycle;Signal;HPM_P1;HPM_P2
2023/10/19 00:00:44;;;;;;;12.80;10.87;;;;;;;;;;5097651;28;20213;-74
2023/10/19 00:03:12;;;;;;;12.53;10.33;;;;;;;;;;5096389;28;20196;-76
2023/10/19 00:05:41;;;;;;;13.40;9.53;;;;;;;;;;5102408;28;20204;-76
2023/10/19 00:08:17;;;;;;;12.77;9.70;;;;;;;;;;5091808;28;20680;-75
2023/10/19 00:10:48;;;;;;;10.33;9.23;;;;;;;;;;5083477;28;20688;-75
2023/10/19 00:13:16;;;;;;;10.73;9.57;;;;;;;;;;5074167;28;20213;-75
2023/10/19 00:15:51;;;;;;;10.40;9.30;;;;;;;;;;5073319;28;20205;-75
2023/10/19 00:20:54;;;;;;;10.30;8.90;;;;;;;;;;5112175;28;20204;-76
2023/10/19 00:23:35;;;;;;;10.53;9.40;;;;;;;;;;5103390;28;20200;-76
2023/10/19 00:26:36;;;;;;;11.97;10.47;;;;;;;;;;5083575;28;20286;-76
2023/10/19 00:28:57;;;;;;;16.20;12.27;;;;;;;;;;5071453;28;20259;-77
2023/10/19 00:31:27;;;;;;;13.80;12.10;;;;;;;;;;5095670;28;20220;-76
2023/10/19 00:33:55;;;;;;;10.43;8.93;;;;;;;;;;5091320;28;20274;-75
2023/10/19 00:36:23;;;;;;;9.40;8.40;;;;;;;;;;5075149;28;20252;-76
2023/10/19 00:38:53;;;;;;;9.87;8.53;;;;;;;;;;5091179;28;20247;-76
2023/10/19 00:41:27;;;;;;;9.73;8.73;;;;;;;;;;5091227;28;20212;-75
2023/10/19 00:44:02;;;;;;;10.70;9.60;;;;;;;;;;5086632;28;20200;-75
2023/10/19 00:46:38;;;;;;;11.27;10.10;;;;;;;;;;5087094;28;20211;-75
2023/10/19 00:49:06;;;;;;;13.63;10.97;;;;;;;;;;5096694;28;20228;-75
2023/10/19 00:54:26;;;;;;;11.57;9.73;;;;;;;;;;5099156;28;20219;-75
2023/10/19 00:56:56;;;;;;;11.90;10.70;;;;;;;;;;5115613;28;20648;-74
2023/10/19 00:59:23;;;;;;;12.63;10.93;;;;;;;;;;5113738;28;20235;-74
2023/10/19 01:01:54;;;;;;;13.03;10.53;;;;;;;;;;5099033;28;20576;-75
2023/10/19 01:04:31;;;;;;;13.03;10.83;;;;;;;;;;5115819;27;20200;-76
2023/10/19 01:07:11;;;;;;;13.73;11.20;;;;;;;;;;5110143;27;20201;-75
2023/10/19 01:09:40;;;;;;;12.40;11.10;;;;;;;;;;5103747;28;20285;-76
2023/10/19 01:12:27;;;;;;;12.63;11.03;;;;;;;;;;5115551;28;20635;-76
2023/10/19 01:15:29;;;;;;;13.70;12.30;;;;;;;;;;5104935;27;20278;-75
2023/10/19 01:17:58;;;;;;;13.30;11.23;;;;;;;;;;5097069;28;20303;-77
2023/10/19 01:28:18;;;;;;;14.87;12.23;;;;;;;;;;5103169;28;20196;-75
2023/10/19 01:30:51;;;;;;;15.30;12.57;;;;;;;;;;5109983;28;20235;-76
2023/10/19 01:33:19;;;;;;;17.53;12.90;;;;;;;;;;5115080;28;20196;-76
2023/10/19 01:38:35;;;;;;;16.23;13.37;;;;;;;;;;5112661;28;20780;-77
2023/10/19 01:41:21;;;;;;;15.20;13.47;;;;;;;;;;5103536;28;20214;-76
2023/10/19 01:43:49;;;;;;;14.47;12.93;;;;;;;;;;5111468;28;20212;-74
2023/10/19 01:46:24;;;;;;;14.40;12.13;;;;;;;;;;5113965;28;20212;-75
2023/10/19 01:48:55;;;;;;;15.73;12.87;;;;;;;;;;5114716;28;20224;-76
2023/10/19 01:51:24;;;;;;;15.33;13.10;;;;;;;;;;5114928;28;20602;-74
2023/10/19 01:53:51;;;;;;;15.03;12.00;;;;;;;;;;5110616;28;20205;-75
2023/10/19 01:56:19;;;;;;;14.20;11.90;;;;;;;;;;5094812;28;20204;-76
2023/10/19 01:58:46;;;;;;;13.13;11.17;;;;;;;;;;5094690;28;20251;-75
2023/10/19 02:01:20;;;;;;;12.93;11.57;;;;;;;;;;5094386;28;20213;-76
2023/10/19 02:03:55;;;;;;;12.60;11.00;;;;;;;;;;5094350;28;20195;-76
2023/10/19 02:06:26;;;;;;;16.13;12.23;;;;;;;;;;5089778;28;20209;-77
2023/10/19 02:08:56;;;;;;;12.73;11.40;;;;;;;;;;5093573;28;20568;-75
2023/10/19 02:11:24;;;;;;;12.53;11.23;;;;;;;;;;5094442;28;20258;-75
2023/10/19 02:13:55;;;;;;;12.97;11.50;;;;;;;;;;5094324;28;20212;-76
2023/10/19 02:16:23;;;;;;;13.07;11.57;;;;;;;;;;5087361;28;20201;-75
2023/10/19 02:18:53;;;;;;;12.80;11.50;;;;;;;;;;5092475;28;20252;-75
2023/10/19 02:21:30;;;;;;;11.30;10.03;;;;;;;;;;5079355;28;20678;-75
2023/10/19 02:23:58;;;;;;;11.67;10.07;;;;;;;;;;5095668;28;20622;-75
2023/10/19 02:26:30;;;;;;;10.87;9.77;;;;;;;;;;5100912;28;20270;-74
2023/10/19 02:28:58;;;;;;;11.60;9.37;;;;;;;;;;5085380;28;20239;-75
2023/10/19 02:31:33;;;;;;;11.33;9.83;;;;;;;;;;5094017;28;20215;-75
2023/10/19 02:34:00;;;;;;;10.73;9.63;;;;;;;;;;5079877;28;20700;-75
2023/10/19 02:36:31;;;;;;;10.60;9.43;;;;;;;;;;5095930;28;20206;-74
2023/10/19 02:38:59;;;;;;;10.87;9.77;;;;;;;;;;5113708;28;20224;-76
2023/10/19 02:41:26;;;;;;;11.63;9.90;;;;;;;;;;5096049;28;20208;-75
2023/10/19 02:44:37;;;;;;;10.87;9.27;;;;;;;;;;5113650;28;20200;-76
2023/10/19 02:47:05;;;;;;;11.90;9.50;;;;;;;;;;5102950;28;20269;-75
2023/10/19 02:49:38;;;;;;;10.37;9.37;;;;;;;;;;5113319;28;20236;-75
2023/10/19 02:52:05;;;;;;;13.87;9.47;;;;;;;;;;5093426;28;20569;-76
2023/10/19 02:54:33;;;;;;;11.60;9.20;;;;;;;;;;5091968;28;20208;-74
2023/10/19 02:57:02;;;;;;;11.30;9.53;;;;;;;;;;5113483;28;20273;-74
2023/10/19 02:59:29;;;;;;;12.00;9.53;;;;;;;;;;5113318;28;20243;-76
2023/10/19 03:04:36;;;;;;;10.13;9.13;;;;;;;;;;5112556;28;20224;-75
2023/10/19 03:07:13;;;;;;;12.43;10.17;;;;;;;;;;5113845;28;20212;-75
2023/10/19 03:09:48;;;;;;;10.43;9.33;;;;;;;;;;5113267;28;20643;-76
2023/10/19 03:12:16;;;;;;;11.10;9.47;;;;;;;;;;5113126;28;20226;-75
2023/10/19 03:14:48;;;;;;;10.87;9.23;;;;;;;;;;5111954;28;20205;-79
2023/10/19 03:17:15;;;;;;;11.20;9.23;;;;;;;;;;5109921;28;20215;-76
2023/10/19 03:19:43;;;;;;;10.57;9.47;;;;;;;;;;5090846;28;20883;-75
2023/10/19 03:22:11;;;;;;;11.40;9.33;;;;;;;;;;5113395;28;20214;-77
2023/10/19 03:24:40;;;;;;;11.20;10.10;;;;;;;;;;5113993;28;20214;-77
2023/10/19 03:27:18;;;;;;;11.13;9.30;;;;;;;;;;5113206;28;20212;-77
2023/10/19 03:29:53;;;;;;;11.37;10.17;;;;;;;;;;5113317;28;20258;-77
2023/10/19 03:32:28;;;;;;;10.77;9.10;;;;;;;;;;5128871;27;20625;-74
2023/10/19 03:34:56;;;;;;;11.57;9.67;;;;;;;;;;5133938;27;20184;-77
2023/10/19 03:37:25;;;;;;;14.67;9.77;;;;;;;;;;5115592;27;20211;-74
2023/10/19 03:39:56;;;;;;;12.93;9.67;;;;;;;;;;5118172;27;20692;-77
2023/10/19 03:42:28;;;;;;;10.40;9.00;;;;;;;;;;5112700;28;20200;-76
2023/10/19 03:48:13;;;;;;;10.70;9.17;;;;;;;;;;5127478;27;20420;-76
2023/10/19 03:50:40;;;;;;;9.03;8.00;;;;;;;;;;5114903;27;20227;-77
2023/10/19 03:53:07;;;;;;;9.70;8.17;;;;;;;;;;5127641;27;20276;-76
2023/10/19 03:55:38;;;;;;;8.90;8.00;;;;;;;;;;5086821;28;20200;-74
2023/10/19 03:58:06;;;;;;;10.90;8.50;;;;;;;;;;5080527;28;20194;-77
2023/10/19 04:00:34;;;;;;;9.90;7.93;;;;;;;;;;5075808;28;20217;-75
2023/10/19 04:03:02;;;;;;;10.93;7.37;;;;;;;;;;5077552;28;20205;-76
2023/10/19 04:05:31;;;;;;;10.63;6.97;;;;;;;;;;5076025;28;20220;-75
2023/10/19 04:07:58;;;;;;;8.07;7.13;;;;;;;;;;5055447;28;20234;-74
2023/10/19 04:13:03;;;;;;;7.90;6.40;;;;;;;;;;5073640;28;20207;-75
2023/10/19 04:15:33;;;;;;;6.27;5.63;;;;;;;;;;5064845;28;20208;-76
2023/10/19 04:18:02;;;;;;;9.80;6.47;;;;;;;;;;5078901;28;20197;-76
2023/10/19 04:23:17;;;;;;;6.30;5.60;;;;;;;;;;5057761;28;20200;-75
2023/10/19 04:25:47;;;;;;;8.30;6.20;;;;;;;;;;5077399;28;20206;-77
2023/10/19 04:28:15;;;;;;;7.23;5.27;;;;;;;;;;5082885;28;20296;-78
2023/10/19 04:30:44;;;;;;;6.03;5.43;;;;;;;;;;5082497;28;20225;-76
2023/10/19 04:33:16;;;;;;;6.17;5.47;;;;;;;;;;5072902;28;20225;-76
2023/10/19 04:35:43;;;;;;;7.93;5.60;;;;;;;;;;5081658;28;20204;-75
2023/10/19 04:38:10;;;;;;;6.87;6.03;;;;;;;;;;5080067;28;20208;-76
2023/10/19 04:40:38;;;;;;;16.30;10.07;;;;;;;;;;5072014;28;20205;-76
2023/10/19 04:43:05;;;;;;;14.47;10.50;;;;;;;;;;5085397;28;20201;-77
2023/10/19 04:45:32;;;;;;;10.17;7.73;;;;;;;;;;5084074;28;20197;-76
2023/10/19 04:48:02;;;;;;;7.40;6.70;;;;;;;;;;5075036;28;20255;-75
2023/10/19 04:50:30;;;;;;;10.07;7.20;;;;;;;;;;5058346;28;20224;-77
2023/10/19 04:52:57;;;;;;;8.83;7.50;;;;;;;;;;5078207;28;20641;-77
2023/10/19 04:55:24;;;;;;;11.20;7.20;;;;;;;;;;5094985;28;20201;-77
2023/10/19 04:57:51;;;;;;;8.40;6.33;;;;;;;;;;5079056;28;20473;-77
2023/10/19 05:00:20;;;;;;;7.03;6.33;;;;;;;;;;5096615;28;20223;-77
2023/10/19 05:02:48;;;;;;;9.63;6.03;;;;;;;;;;5101720;28;20207;-78
2023/10/19 05:05:17;;;;;;;6.33;5.33;;;;;;;;;;5106122;28;20654;-76
2023/10/19 05:07:44;;;;;;;6.03;4.93;;;;;;;;;;5098089;28;20205;-76
2023/10/19 05:10:12;;;;;;;8.30;5.67;;;;;;;;;;5094175;28;20217;-77
2023/10/19 05:12:39;;;;;;;6.47;4.90;;;;;;;;;;5085231;28;20680;-74
2023/10/19 05:15:08;;;;;;;6.93;5.40;;;;;;;;;;5100236;28;20644;-75
2023/10/19 05:17:35;;;;;;;6.87;4.67;;;;;;;;;;5106973;28;20215;-76
2023/10/19 05:20:05;;;;;;;6.70;5.43;;;;;;;;;;5101918;28;20259;-76
2023/10/19 05:22:32;;;;;;;6.67;5.17;;;;;;;;;;5100329;28;20722;-77
2023/10/19 05:25:01;;;;;;;6.27;5.67;;;;;;;;;;5091832;28;20337;-78
2023/10/19 05:27:28;;;;;;;7.43;5.60;;;;;;;;;;5092048;28;20200;-75
2023/10/19 05:29:56;;;;;;;5.87;5.27;;;;;;;;;;5106057;27;20285;-76
2023/10/19 05:32:24;;;;;;;8.60;5.53;;;;;;;;;;5107635;27;20307;-76
2023/10/19 05:34:51;;;;;;;6.97;5.83;;;;;;;;;;5087066;28;20652;-76
2023/10/19 05:37:19;;;;;;;6.73;5.40;;;;;;;;;;5111097;27;20206;-75
2023/10/19 05:39:47;;;;;;;6.60;5.63;;;;;;;;;;5109367;27;20212;-75
2023/10/19 05:42:14;;;;;;;6.93;5.87;;;;;;;;;;5109031;27;20625;-75
2023/10/19 05:44:42;;;;;;;9.17;6.70;;;;;;;;;;5104758;28;20200;-76
2023/10/19 05:47:09;;;;;;;6.90;5.47;;;;;;;;;;5105278;28;20621;-74
2023/10/19 05:49:37;;;;;;;7.40;5.77;;;;;;;;;;5103199;27;20613;-74
2023/10/19 05:52:04;;;;;;;7.30;5.60;;;;;;;;;;5100623;27;20255;-74
2023/10/19 05:54:31;;;;;;;6.20;5.60;;;;;;;;;;5116279;27;20204;-74
2023/10/19 05:56:59;;;;;;;6.60;5.93;;;;;;;;;;5113782;28;20275;-77
2023/10/19 05:59:29;;;;;;;6.53;5.93;;;;;;;;;;5122128;27;20219;-77
2023/10/19 06:01:56;;;;;;;7.90;5.77;;;;;;;;;;5114787;27;20210;-76
2023/10/19 06:04:24;;;;;;;6.43;5.30;;;;;;;;;;5108801;28;20232;-76
2023/10/19 06:06:51;;;;;;;7.37;5.43;;;;;;;;;;5108676;27;20664;-76
2023/10/19 06:09:19;;;;;;;8.43;5.50;;;;;;;;;;5112666;28;20224;-76
2023/10/19 06:11:46;;;;;;;6.87;5.33;;;;;;;;;;5111964;28;20234;-76
2023/10/19 06:14:14;;;;;;;6.97;5.87;;;;;;;;;;5113719;28;20197;-75
2023/10/19 06:16:41;;;;;;;6.97;5.40;;;;;;;;;;5116388;27;20196;-75
2023/10/19 06:19:08;;;;;;;6.03;5.43;;;;;;;;;;5099265;27;20266;-75
2023/10/19 06:21:36;;;;;;;7.43;5.50;;;;;;;;;;5108469;28;20303;-73
2023/10/19 06:24:04;;;;;;;7.37;5.73;;;;;;;;;;5105193;27;20634;-74
2023/10/19 06:26:31;;;;;;;8.80;6.33;;;;;;;;;;5112388;27;20244;-74
2023/10/19 06:28:59;;;;;;;7.10;6.03;;;;;;;;;;5106768;27;20327;-75
2023/10/19 06:31:28;;;;;;;7.00;6.30;;;;;;;;;;5088795;27;20219;-73
2023/10/19 06:33:57;;;;;;;7.50;6.70;;;;;;;;;;5099405;27;20205;-76
2023/10/19 06:36:25;;;;;;;8.10;6.57;;;;;;;;;;5102594;27;20665;-73
2023/10/19 06:38:54;;;;;;;7.72;6.28;;;;;;;;;;5098519;27;20344;-73
2023/10/19 06:41:22;;;;;;;7.20;6.30;;;;;;;;;;5081951;28;20733;-76
2023/10/19 06:43:49;;;;;;;6.50;5.85;;;;;;;;;;5105825;27;20226;-75
2023/10/19 06:46:17;;;;;;;9.07;6.38;;;;;;;;;;5086616;28;20212;-75
2023/10/19 06:48:45;;;;;;;6.60;5.50;;;;;;;;;;5106519;28;20269;-74
2023/10/19 06:51:13;;;;;;;6.93;6.28;;;;;;;;;;5104657;28;20215;-75
2023/10/19 06:53:41;;;;;;;6.23;5.63;;;;;;;;;;5099331;27;20212;-75
2023/10/19 06:56:08;;;;;;;5.70;5.20;;;;;;;;;;5111943;27;20196;-75
2023/10/19 06:58:36;;;;;;;6.70;5.60;;;;;;;;;;5102113;28;20217;-75
2023/10/19 07:01:08;;;;;;;7.50;5.63;;;;;;;;;;5107570;27;20644;-75
2023/10/19 07:03:37;;;;;;;6.65;5.13;;;;;;;;;;5103581;28;20196;-74
2023/10/19 07:06:07;;;;;;;5.85;4.95;;;;;;;;;;5101270;27;20299;-74
2023/10/19 07:08:42;;;;;;;5.13;4.65;;;;;;;;;;5109086;27;20273;-76
2023/10/19 07:11:12;;;;;;;6.30;5.63;;;;;;;;;;5103393;27;20200;-75
2023/10/19 07:13:40;;;;;;;6.65;5.20;;;;;;;;;;5101832;28;20675;-76
2023/10/19 07:16:11;;;;;;;6.05;4.70;;;;;;;;;;5103020;28;20220;-74
2023/10/19 07:18:39;;;;;;;5.20;4.60;;;;;;;;;;5105045;28;20303;-75
2023/10/19 07:21:09;;;;;;;5.80;5.13;;;;;;;;;;5107070;27;20295;-75
2023/10/19 07:23:40;;;;;;;7.75;5.70;;;;;;;;;;5090482;28;20205;-77
2023/10/19 07:26:08;;;;;;;7.28;4.90;;;;;;;;;;5090489;28;20575;-75
2023/10/19 07:28:35;;;;;;;5.43;4.95;;;;;;;;;;5093503;28;20240;-78
2023/10/19 07:31:12;;;;;;;5.47;4.85;;;;;;;;;;5086567;28;20288;-77
2023/10/19 07:33:45;;;;;;;6.50;4.50;;;;;;;;;;5066494;28;20284;-76
2023/10/19 07:36:16;;;;;;;4.35;3.95;;;;;;;;;;5077635;28;20626;-76
2023/10/19 07:38:45;;;;;;;4.03;3.63;;;;;;;;;;5098778;28;20220;-76
2023/10/19 07:41:12;;;;;;;3.78;3.47;;;;;;;;;;5097550;27;20282;-75
2023/10/19 07:43:40;;;;;;;3.58;3.28;;;;;;;;;;5087415;27;20209;-78
2023/10/19 07:46:08;;;;;;;4.70;3.13;;;;;;;;;;5096170;28;20206;-78
2023/10/19 07:48:35;;;;;;;3.10;2.90;;;;;;;;;;5101114;28;20212;-77
2023/10/19 07:51:03;;;;;;;3.22;2.92;;;;;;;;;;5093074;28;20207;-77
2023/10/19 07:53:30;;;;;;;3.25;2.97;;;;;;;;;;5100108;28;20228;-76
2023/10/19 07:55:57;;;;;;;3.22;2.65;;;;;;;;;;5094553;28;20232;-78
2023/10/19 07:58:27;;;;;;;3.30;3.00;;;;;;;;;;5093831;28;20385;-77
2023/10/19 08:00:54;;;;;;;4.38;3.08;;;;;;;;;;5099187;28;20265;-76
2023/10/19 08:03:25;;;;;;;5.25;3.60;;;;;;;;;;5092165;28;20219;-77
2023/10/19 08:05:52;;;;;;;2.90;2.58;;;;;;;;;;5097199;28;20211;-77
2023/10/19 08:08:19;;;;;;;2.67;2.47;;;;;;;;;;5093045;28;20224;-75
2023/10/19 08:10:47;;;;;;;2.25;2.05;;;;;;;;;;5088846;28;20208;-76
2023/10/19 08:13:14;;;;;;;1.83;1.73;;;;;;;;;;5102061;28;20295;-76
2023/10/19 08:15:41;;;;;;;4.22;2.30;;;;;;;;;;5097683;28;20265;-75
2023/10/19 08:18:12;;;;;;;3.25;1.80;;;;;;;;;;5092212;28;20581;-75
2023/10/19 08:20:39;;;;;;;1.50;1.40;;;;;;;;;;5095877;28;20713;-75
2023/10/19 08:23:07;;;;;;;2.17;1.60;;;;;;;;;;5092218;28;20205;-74
2023/10/19 08:25:35;;;;;;;3.58;2.28;;;;;;;;;;5096499;28;20226;-73
2023/10/19 08:28:22;;;;;;;1.80;1.70;;;;;;;;;;5086522;28;20728;-75
2023/10/19 08:31:02;;;;;;;1.60;1.50;;;;;;;;;;5097622;28;20663;-75
2023/10/19 08:33:29;;;;;;;4.80;1.75;;;;;;;;;;5093000;28;20227;-76
2023/10/19 08:35:57;;;;;;;2.08;1.80;;;;;;;;;;5072353;28;20865;-75
2023/10/19 08:38:25;;;;;;;1.50;1.40;;;;;;;;;;5065015;28;20797;-75
2023/10/19 08:40:54;;;;;;;1.65;1.50;;;;;;;;;;5089895;28;20211;-74
2023/10/19 08:43:22;;;;;;;1.30;1.30;;;;;;;;;;5079135;28;20216;-76
2023/10/19 08:45:51;;;;;;;1.73;1.50;;;;;;;;;;5097244;28;20299;-74
2023/10/19 08:48:19;;;;;;;1.60;1.45;;;;;;;;;;5102663;28;20265;-74
2023/10/19 08:50:48;;;;;;;1.42;1.30;;;;;;;;;;5102986;28;20287;-77
2023/10/19 08:53:17;;;;;;;1.80;1.40;;;;;;;;;;5093629;28;20255;-75
2023/10/19 08:55:48;;;;;;;2.17;1.60;;;;;;;;;;5072420;28;20652;-76
2023/10/19 08:58:17;;;;;;;1.95;1.75;;;;;;;;;;5087795;28;20200;-76
2023/10/19 09:00:46;;;;;;;2.30;1.83;;;;;;;;;;5088805;28;20200;-76
2023/10/19 09:03:16;;;;;;;2.22;2.00;;;;;;;;;;5093010;28;20224;-74
2023/10/19 09:05:46;;;;;;;2.65;1.80;;;;;;;;;;5097452;28;20216;-77
2023/10/19 09:08:19;;;;;;;2.50;2.30;;;;;;;;;;5099047;28;20200;-75
2023/10/19 09:10:48;;;;;;;4.07;2.60;;;;;;;;;;5098305;27;20200;-73
2023/10/19 09:13:18;;;;;;;2.35;1.90;;;;;;;;;;5094827;28;20242;-79
2023/10/19 09:15:53;;;;;;;2.10;1.90;;;;;;;;;;5102718;27;20272;-75
2023/10/19 09:18:22;;;;;;;2.58;1.77;;;;;;;;;;5095361;28;20230;-75
2023/10/19 09:20:55;;;;;;;2.45;1.88;;;;;;;;;;5093584;28;20484;-75
2023/10/19 09:23:23;;;;;;;1.73;1.40;;;;;;;;;;5097279;28;20655;-74
2023/10/19 09:25:54;;;;;;;1.70;1.50;;;;;;;;;;5092158;28;20208;-75
2023/10/19 09:28:23;;;;;;;5.60;1.60;;;;;;;;;;5098229;27;20212;-76
2023/10/19 09:30:51;;;;;;;1.55;1.45;;;;;;;;;;5095255;28;20228;-73
2023/10/19 09:33:21;;;;;;;1.60;1.50;;;;;;;;;;5105256;27;20212;-75
2023/10/19 09:35:52;;;;;;;1.25;1.15;;;;;;;;;;5090925;28;20287;-73
2023/10/19 09:38:24;;;;;;;1.60;1.50;;;;;;;;;;5091633;27;20570;-76
2023/10/19 09:40:54;;;;;;;1.40;1.30;;;;;;;;;;5100003;28;20206;-76
2023/10/19 09:43:29;;;;;;;1.38;1.20;;;;;;;;;;5100783;28;20597;-75
2023/10/19 09:46:00;;;;;;;2.33;1.80;;;;;;;;;;5075603;28;20208;-75
2023/10/19 09:48:28;;;;;;;10.15;4.70;;;;;;;;;;5102270;28;20256;-75
2023/10/19 09:50:58;;;;;;;15.10;6.40;;;;;;;;;;5089784;27;20696;-76
2023/10/19 09:53:30;;;;;;;9.88;4.85;;;;;;;;;;5098769;28;20224;-77
2023/10/19 09:55:59;;;;;;;7.90;3.83;;;;;;;;;;5100792;28;20204;-75
2023/10/19 09:58:32;;;;;;;7.75;4.40;;;;;;;;;;5095457;28;20307;-77
2023/10/19 10:01:02;;;;;;;6.03;4.18;;;;;;;;;;5102720;27;20204;-74
2023/10/19 10:03:46;;;;;;;2.40;2.13;;;;;;;;;;5084315;28;20204;-76
2023/10/19 10:06:20;;;;;;;2.10;1.90;;;;;;;;;;5094532;28;20212;-76
2023/10/19 10:08:48;;;;;;;3.78;1.90;;;;;;;;;;5084878;28;21488;-76
2023/10/19 10:11:28;;;;;;;2.22;2.00;;;;;;;;;;5092471;28;20266;-76
2023/10/19 10:13:57;;;;;;;4.55;3.65;;;;;;;;;;5080501;27;20247;-75
2023/10/19 10:16:25;;;;;;;2.83;2.60;;;;;;;;;;5094769;28;20481;-74
2023/10/19 10:18:59;;;;;;;2.30;2.10;;;;;;;;;;5096181;27;20674;-75
2023/10/19 10:21:28;;;;;;;2.10;1.90;;;;;;;;;;5085797;28;20295;-74
2023/10/19 10:23:59;;;;;;;2.20;1.90;;;;;;;;;;5075219;28;20217;-77
2023/10/19 10:26:29;;;;;;;2.58;2.22;;;;;;;;;;5084059;28;20586;-76
2023/10/19 10:29:26;;;;;;;2.80;2.60;;;;;;;;;;5083954;28;20228;-77
2023/10/19 10:31:54;;;;;;;2.92;2.63;;;;;;;;;;5093145;27;20586;-77
2023/10/19 10:34:42;;;;;;;1.80;1.70;;;;;;;;;;5092611;27;20669;-74
2023/10/19 10:37:14;;;;;;;1.83;1.67;;;;;;;;;;5070701;28;20594;-75
2023/10/19 10:39:44;;;;;;;8.40;4.82;;;;;;;;;;5097695;28;20220;-74
2023/10/19 10:42:13;;;;;;;3.67;3.05;;;;;;;;;;5079147;28;20684;-76
2023/10/19 10:44:55;;;;;;;3.22;2.72;;;;;;;;;;5078881;28;20265;-75
2023/10/19 10:47:29;;;;;;;3.05;2.28;;;;;;;;;;5100714;27;20204;-77
2023/10/19 10:49:56;;;;;;;1.60;1.50;;;;;;;;;;5081321;28;20256;-77
2023/10/19 10:52:28;;;;;;;4.07;1.60;;;;;;;;;;5107574;27;20231;-75
2023/10/19 10:55:06;;;;;;;2.13;1.73;;;;;;;;;;5104018;28;20678;-75
2023/10/19 10:57:34;;;;;;;1.73;1.25;;;;;;;;;;5105780;27;20937;-75
2023/10/19 11:00:07;;;;;;;1.63;1.52;;;;;;;;;;5098578;28;20716;-77
2023/10/19 11:02:36;;;;;;;1.45;1.35;;;;;;;;;;5089249;27;20212;-74
2023/10/19 11:05:03;;;;;;;1.20;1.10;;;;;;;;;;5093172;28;20205;-76
2023/10/19 11:07:31;;;;;;;1.77;1.27;;;;;;;;;;5103659;27;20212;-78
2023/10/19 11:10:01;;;;;;;1.30;1.25;;;;;;;;;;5107035;28;20481;-79
2023/10/19 11:12:29;;;;;;;1.40;1.30;;;;;;;;;;5099549;27;20219;-80
2023/10/19 11:15:00;;;;;;;0.98;0.98;;;;;;;;;;5105160;28;20596;-78
2023/10/19 11:17:33;;;;;;;1.20;1.10;;;;;;;;;;5096521;28;20257;-79
2023/10/19 11:20:01;;;;;;;0.98;0.98;;;;;;;;;;5093380;28;20224;-77
2023/10/19 11:22:28;;;;;;;1.30;1.20;;;;;;;;;;5098229;27;20204;-78
2023/10/19 11:24:56;;;;;;;0.98;0.98;;;;;;;;;;5071078;28;20213;-78
2023/10/19 11:27:26;;;;;;;1.35;1.20;;;;;;;;;;5100907;28;20205;-78
2023/10/19 11:29:55;;;;;;;1.05;0.85;;;;;;;;;;5090411;28;20865;-77
2023/10/19 11:32:25;;;;;;;2.40;1.15;;;;;;;;;;5084420;28;20223;-77
2023/10/19 11:34:53;;;;;;;1.52;1.13;;;;;;;;;;5093977;28;20215;-79
2023/10/19 11:37:21;;;;;;;2.40;1.10;;;;;;;;;;5101188;28;20319;-79
2023/10/19 11:39:52;;;;;;;2.75;1.80;;;;;;;;;;5089868;28;20224;-79
2023/10/19 11:42:19;;;;;;;1.30;1.20;;;;;;;;;;5088989;28;20230;-78
2023/10/19 11:44:47;;;;;;;3.90;3.40;;;;;;;;;;5089688;28;20316;-78
2023/10/19 11:47:14;;;;;;;8.50;6.05;;;;;;;;;;5097538;27;20373;-80
2023/10/19 11:49:42;;;;;;;2.58;1.92;;;;;;;;;;5100008;27;20216;-80
2023/10/19 11:52:09;;;;;;;3.10;2.90;;;;;;;;;;5097851;28;20204;-76
2023/10/19 11:54:36;;;;;;;1.00;1.00;;;;;;;;;;5089196;28;20227;-79
2023/10/19 11:57:06;;;;;;;1.60;1.50;;;;;;;;;;5091975;28;20200;-80
2023/10/19 11:59:33;;;;;;;0.90;0.90;;;;;;;;;;5094366;27;20286;-78
2023/10/19 12:02:03;;;;;;;1.13;1.02;;;;;;;;;;5097615;28;20214;-78
2023/10/19 12:04:32;;;;;;;0.88;0.88;;;;;;;;;;5074137;28;20288;-78
2023/10/19 12:07:00;;;;;;;0.90;0.90;;;;;;;;;;5096739;28;20217;-78
2023/10/19 12:09:28;;;;;;;2.70;1.80;;;;;;;;;;5086767;28;20227;-78
2023/10/19 12:11:55;;;;;;;1.00;1.00;;;;;;;;;;5091513;28;20717;-80
2023/10/19 12:14:23;;;;;;;0.80;0.80;;;;;;;;;;5088179;28;20230;-80
2023/10/19 12:16:50;;;;;;;0.80;0.80;;;;;;;;;;5096241;28;20208;-79
2023/10/19 12:19:18;;;;;;;1.58;0.80;;;;;;;;;;5098096;28;20216;-80
2023/10/19 12:21:46;;;;;;;1.45;0.88;;;;;;;;;;5082666;28;20245;-78
2023/10/19 12:24:15;;;;;;;1.23;1.13;;;;;;;;;;5075522;28;20297;-79
2023/10/19 12:26:42;;;;;;;1.13;1.00;;;;;;;;;;5102721;28;20196;-78
2023/10/19 12:29:11;;;;;;;1.38;0.77;;;;;;;;;;5097042;28;20231;-75
2023/10/19 12:31:39;;;;;;;1.83;0.95;;;;;;;;;;5074713;28;20200;-76
2023/10/19 12:34:07;;;;;;;1.15;1.10;;;;;;;;;;5076224;28;20807;-75
2023/10/19 12:36:35;;;;;;;0.80;0.80;;;;;;;;;;5085415;28;20228;-76
2023/10/19 12:39:04;;;;;;;1.40;0.85;;;;;;;;;;5109188;28;20219;-77
2023/10/19 12:41:34;;;;;;;1.23;1.00;;;;;;;;;;5104758;28;20204;-79
2023/10/19 12:44:07;;;;;;;1.05;0.90;;;;;;;;;;5100493;28;20208;-76
2023/10/19 12:46:36;;;;;;;0.75;0.75;;;;;;;;;;5103130;28;20291;-77
2023/10/19 12:49:16;;;;;;;0.88;0.88;;;;;;;;;;5087672;27;20313;-76
2023/10/19 12:51:44;;;;;;;1.10;1.10;;;;;;;;;;5100850;28;20686;-75
2023/10/19 12:54:13;;;;;;;1.00;1.00;;;;;;;;;;5105958;27;20220;-77
2023/10/19 12:56:41;;;;;;;2.08;1.20;;;;;;;;;;5111158;27;20205;-76
2023/10/19 12:59:09;;;;;;;1.20;1.10;;;;;;;;;;5078496;28;20327;-76
2023/10/19 13:01:36;;;;;;;1.17;1.17;;;;;;;;;;5108256;28;20597;-78
2023/10/19 13:04:23;;;;;;;1.33;1.23;;;;;;;;;;5106509;27;20284;-78
2023/10/19 13:06:51;;;;;;;1.20;1.10;;;;;;;;;;5093741;28;22629;-78
2023/10/19 13:09:21;;;;;;;1.13;1.08;;;;;;;;;;5104602;28;20692;-79
2023/10/19 13:11:51;;;;;;;1.75;1.45;;;;;;;;;;5102990;28;20231;-77
2023/10/19 13:14:19;;;;;;;3.35;2.50;;;;;;;;;;5095940;27;24568;-79
2023/10/19 13:16:49;;;;;;;1.33;1.23;;;;;;;;;;5102246;28;25349;-76
2023/10/19 13:19:20;;;;;;;2.30;1.38;;;;;;;;;;5086494;28;20236;-79
2023/10/19 13:21:51;;;;;;;1.00;1.00;;;;;;;;;;5100933;27;20203;-78
2023/10/19 13:24:22;;;;;;;1.10;0.90;;;;;;;;;;5105968;27;20261;-77
2023/10/19 13:26:50;;;;;;;4.32;3.00;;;;;;;;;;5107439;28;20219;-77
2023/10/19 13:29:20;;;;;;;1.98;1.65;;;;;;;;;;5098411;27;20216;-79
2023/10/19 13:31:50;;;;;;;1.30;1.20;;;;;;;;;;5077296;28;20299;-77
2023/10/19 13:34:18;;;;;;;0.80;0.80;;;;;;;;;;5098732;28;20220;-78
2023/10/19 13:36:46;;;;;;;1.75;1.23;;;;;;;;;;5098520;28;20249;-77
2023/10/19 13:39:16;;;;;;;0.90;0.90;;;;;;;;;;5085764;28;20224;-78
2023/10/19 13:41:44;;;;;;;4.25;3.85;;;;;;;;;;5102612;28;20192;-79
2023/10/19 13:44:12;;;;;;;2.78;2.58;;;;;;;;;;5102659;28;20196;-77
2023/10/19 13:46:39;;;;;;;1.38;1.33;;;;;;;;;;5103488;27;20294;-80
2023/10/19 13:49:09;;;;;;;3.60;3.30;;;;;;;;;;5110324;28;20268;-79
2023/10/19 13:51:39;;;;;;;3.65;3.10;;;;;;;;;;5104510;27;20204;-78
2023/10/19 13:54:06;;;;;;;3.70;3.28;;;;;;;;;;5104042;28;20228;-78
2023/10/19 13:56:33;;;;;;;3.15;2.33;;;;;;;;;;5100500;28;20197;-77
2023/10/19 13:59:00;;;;;;;5.70;3.72;;;;;;;;;;5097711;28;20220;-78
2023/10/19 14:01:28;;;;;;;3.65;3.33;;;;;;;;;;5092434;28;20460;-79
2023/10/19 14:03:56;;;;;;;3.22;2.92;;;;;;;;;;5090643;28;20793;-78
2023/10/19 14:06:25;;;;;;;3.25;2.10;;;;;;;;;;5101019;28;20204;-78
2023/10/19 14:08:52;;;;;;;2.20;2.00;;;;;;;;;;5099973;28;20224;-79
2023/10/19 14:11:21;;;;;;;2.90;1.95;;;;;;;;;;5090075;28;20212;-79
2023/10/19 14:13:51;;;;;;;1.15;1.15;;;;;;;;;;5107845;28;20737;-80
2023/10/19 14:16:19;;;;;;;1.83;1.73;;;;;;;;;;5103854;27;20196;-79
2023/10/19 14:18:47;;;;;;;1.00;0.90;;;;;;;;;;5107466;28;20280;-80
2023/10/19 14:21:15;;;;;;;0.82;0.82;;;;;;;;;;5107097;28;20215;-79
2023/10/19 14:23:43;;;;;;;1.05;0.93;;;;;;;;;;5080449;28;20250;-78
2023/10/19 14:26:10;;;;;;;0.95;0.95;;;;;;;;;;5094294;28;20201;-81
2023/10/19 14:28:38;;;;;;;1.00;0.98;;;;;;;;;;5099516;28;20723;-80
2023/10/19 14:31:07;;;;;;;1.23;0.80;;;;;;;;;;5085514;28;20235;-79
2023/10/19 14:33:35;;;;;;;1.55;0.80;;;;;;;;;;5077824;28;20247;-79
2023/10/19 14:36:04;;;;;;;0.93;0.93;;;;;;;;;;5104268;28;20279;-80
2023/10/19 14:38:31;;;;;;;0.90;0.80;;;;;;;;;;5100429;28;20220;-80
2023/10/19 14:40:59;;;;;;;1.15;0.80;;;;;;;;;;5101801;28;20196;-80
2023/10/19 14:43:29;;;;;;;0.70;0.70;;;;;;;;;;5082908;28;20200;-81
2023/10/19 14:45:59;;;;;;;1.38;1.10;;;;;;;;;;5109047;28;20206;-78
2023/10/19 14:48:26;;;;;;;1.00;1.00;;;;;;;;;;5102154;28;20204;-79
2023/10/19 14:50:57;;;;;;;1.23;1.00;;;;;;;;;;5100290;28;20236;-81
2023/10/19 14:53:24;;;;;;;0.98;0.98;;;;;;;;;;5110509;28;20227;-81
2023/10/19 14:55:52;;;;;;;1.27;0.85;;;;;;;;;;5083470;28;20212;-80
2023/10/19 14:58:20;;;;;;;1.20;1.10;;;;;;;;;;5069933;27;26636;-80
2023/10/19 15:00:54;;;;;;;3.22;2.90;;;;;;;;;;5069726;28;20344;-80
2023/10/19 15:03:23;;;;;;;4.43;4.03;;;;;;;;;;5080215;28;20399;-79
2023/10/19 15:05:52;;;;;;;6.15;5.60;;;;;;;;;;5068386;28;20213;-77
2023/10/19 15:08:20;;;;;;;8.40;7.60;;;;;;;;;;5097723;28;20200;-79
2023/10/19 15:10:47;;;;;;;11.43;10.23;;;;;;;;;;5077454;28;20201;-75
2023/10/19 15:13:15;;;;;;;11.75;10.65;;;;;;;;;;5102777;27;20205;-78
2023/10/19 15:15:42;;;;;;;14.50;13.02;;;;;;;;;;5093524;27;20201;-79
2023/10/19 15:18:10;;;;;;;16.48;14.77;;;;;;;;;;5100271;28;20398;-78
2023/10/19 15:20:37;;;;;;;14.70;13.18;;;;;;;;;;5081309;28;20214;-78